C. Angelo — WCZ5866 — position and weather

sailwx.info

Track history (hours):
 
Tides and Currents Weather Stations Pressure Air Temp Water Temp Dewpoint Dewpoint Depression Visibility Wind Speed Wind Dir Waves Ship Positions

C. Angelo

Owner: G T 110 INC, NEW HAVEN, CT. More information available from US FCC via Universal Licensing System and Coast Guard Vessel Documentation Center.

Last reported at 2018-Feb-19 23:58 UTC. Time now 2018-Feb-20 00:02 UTC.
Position N 40°42' W 073°58'.

MMSI: 366988420.

Date/timePositionNaut miles runAvg speedWind from/ knotsBaromVisibWave heightAir tempDewpointWater temp
2018-Feb-19 23:58N 40°42' W 073°58'0 0.0
2018-Feb-19 23:29N 40°42' W 073°58'0 0.0
2018-Feb-19 22:30N 40°42' W 073°58'0 0.0
2018-Feb-19 22:00N 40°42' W 073°58'0 0.0
2018-Feb-19 21:28N 40°42' W 073°58'0 0.0
2018-Feb-19 21:00N 40°42' W 073°58'0 0.0
2018-Feb-19 20:30N 40°42' W 073°58'0 0.0
2018-Feb-19 20:00N 40°42' W 073°58'0 0.0
2018-Feb-19 19:30N 40°42' W 073°58'0 0.0
2018-Feb-19 19:00N 40°42' W 073°58'0 0.0
2018-Feb-19 18:30N 40°42' W 073°58'0 0.0
2018-Feb-19 17:59N 40°42' W 073°58'0 0.0
2018-Feb-19 17:30N 40°42' W 073°58'0 0.0
2018-Feb-19 16:59N 40°42' W 073°58'0 0.0
2018-Feb-19 16:29N 40°42' W 073°58'0 0.0
2018-Feb-19 16:00N 40°42' W 073°58'0 0.0
2018-Feb-19 15:30N 40°42' W 073°58'0 0.0
2018-Feb-19 15:00N 40°42' W 073°58'0 0.0
2018-Feb-19 14:30N 40°42' W 073°58'0 0.0
2018-Feb-19 14:00N 40°42' W 073°58'0 0.0
2018-Feb-19 13:30N 40°42' W 073°58'0 0.0
2018-Feb-19 12:58N 40°42' W 073°58'0 0.0
2018-Feb-19 12:29N 40°42' W 073°58'0 0.0
2018-Feb-19 12:00N 40°42' W 073°58'0 0.0
2018-Feb-19 11:30N 40°42' W 073°58'0 0.1
2018-Feb-19 11:00N 40°43' W 073°58'3 5.0
2018-Feb-19 10:30N 40°42' W 074°02'4 7.3
2018-Feb-19 10:00N 40°46' W 074°01'2 4.6
2018-Feb-19 09:30N 40°47' W 073°59'1 1.4
2018-Feb-19 08:59N 40°47' W 073°60'1 1.9
2018-Feb-19 08:30N 40°46' W 074°00'1 2.5
2018-Feb-19 08:00N 40°45' W 074°01'2 3.1
2018-Feb-19 07:30N 40°43' W 074°01'2 3.4
2018-Feb-19 07:00N 40°42' W 074°02'2 3.3
2018-Feb-19 06:30N 40°40' W 074°03'2 3.6
2018-Feb-19 06:00N 40°39' W 074°03'2 3.5
2018-Feb-19 05:30N 40°37' W 074°03'2 3.7
2018-Feb-19 05:00N 40°35' W 074°02'1 1.2
2018-Feb-19 04:30N 40°35' W 074°02'3 5.9
2018-Feb-19 04:00N 40°32' W 074°01'3 6.7
2018-Feb-19 03:29N 40°30' W 073°57'3 6.5
2018-Feb-19 03:00N 40°28' W 073°54'4 6.6
2018-Feb-19 02:28N 40°24' W 073°54'31 7.7
2018-Feb-18 22:25N 39°53' W 073°57'4 8.0
2018-Feb-18 21:58N 39°49' W 073°57'4 7.9
2018-Feb-18 21:30N 39°46' W 073°58'4 7.6
2018-Feb-18 20:59N 39°42' W 074°00'4 7.8
2018-Feb-18 20:30N 39°39' W 074°02'4 7.6
2018-Feb-18 19:57N 39°35' W 074°04'62 6.0
2018-Feb-18 09:46N 38°57' W 075°07'2 7.6
2018-Feb-18 09:28N 38°59' W 075°08'4 7.9
2018-Feb-18 09:00N 39°02' W 075°10'4 8.9
2018-Feb-18 08:30N 39°06' W 075°12'5 9.4
2018-Feb-18 08:00N 39°10' W 075°16'5 9.1
2018-Feb-18 07:30N 39°14' W 075°18'4 7.9
2018-Feb-18 07:00N 39°17' W 075°22'4 8.3
2018-Feb-18 06:30N 39°20' W 075°25'4 7.2
2018-Feb-18 06:00N 39°23' W 075°28'4 7.1
2018-Feb-18 05:30N 39°26' W 075°32'3 6.3
2018-Feb-18 05:00N 39°28' W 075°34'2 4.1
2018-Feb-18 04:30N 39°30' W 075°33'0 0.6
2018-Feb-18 04:00N 39°30' W 075°33'3 6.4
2018-Feb-18 03:31N 39°34' W 075°33'4 8.7
2018-Feb-18 03:00N 39°33' W 075°39'4 8.6
2018-Feb-18 02:30N 39°32' W 075°44'4 8.7
2018-Feb-18 02:00N 39°32' W 075°50'4 8.2
2018-Feb-18 01:31N 39°30' W 075°55'5 9.1
2018-Feb-18 01:00N 39°27' W 075°59'4 8.8
2018-Feb-18 00:30N 39°24' W 076°03'4 8.4
2018-Feb-18 00:00N 39°22' W 076°08'4 7.9
2018-Feb-17 23:27N 39°20' W 076°12'4 7.9
2018-Feb-17 23:00N 39°16' W 076°14'4 7.2
2018-Feb-17 22:30N 39°13' W 076°15'3 6.7
2018-Feb-17 21:59N 39°10' W 076°18'3 5.1
2018-Feb-17 21:29N 39°09' W 076°21'3 6.5
2018-Feb-17 21:00N 39°10' W 076°25'3 6.5
2018-Feb-17 20:30N 39°11' W 076°29'1 2.5
2018-Feb-17 20:00N 39°13' W 076°29'0 0.2
2018-Feb-17 19:27N 39°13' W 076°29'0 0.0
2018-Feb-17 18:56N 39°13' W 076°29'0 0.0
2018-Feb-17 18:28N 39°13' W 076°29'0 0.0
2018-Feb-17 17:59N 39°13' W 076°29'0 0.0
2018-Feb-17 17:26N 39°13' W 076°29'0 0.0
2018-Feb-17 17:00N 39°13' W 076°29'0 0.0
2018-Feb-17 16:28N 39°13' W 076°29'0 0.0
2018-Feb-17 16:00N 39°13' W 076°29'0 0.0
2018-Feb-17 15:30N 39°13' W 076°29'0 0.0
2018-Feb-17 14:59N 39°13' W 076°29'0 0.0
2018-Feb-17 14:29N 39°13' W 076°29'0 0.0
2018-Feb-17 14:00N 39°13' W 076°29'0 0.0
2018-Feb-17 13:27N 39°13' W 076°29'0 0.0
2018-Feb-17 13:00N 39°13' W 076°29'0 0.0
2018-Feb-17 12:30N 39°13' W 076°29'0 0.0
2018-Feb-17 12:00N 39°13' W 076°29'0 0.0
2018-Feb-17 11:30N 39°13' W 076°29'0 0.0
2018-Feb-17 11:00N 39°13' W 076°29'0 0.0
2018-Feb-17 10:15N 39°13' W 076°29'0 0.0
2018-Feb-17 10:00N 39°13' W 076°29'0 0.0
2018-Feb-17 09:30N 39°13' W 076°29'0 0.0
2018-Feb-17 09:00N 39°13' W 076°29'0 0.0
2018-Feb-17 08:30N 39°13' W 076°29'0 0.0
2018-Feb-17 08:00N 39°13' W 076°29'0 0.0
2018-Feb-17 07:30N 39°13' W 076°29'0 0.0
2018-Feb-17 07:00N 39°13' W 076°29'0 0.0
2018-Feb-17 06:21N 39°13' W 076°29'0 0.0
2018-Feb-17 05:57N 39°13' W 076°29'0 0.0
2018-Feb-17 05:24N 39°13' W 076°29'0 0.0
2018-Feb-17 05:00N 39°13' W 076°29'0 0.0
2018-Feb-17 04:21N 39°13' W 076°29'0 0.0
2018-Feb-17 03:51N 39°13' W 076°29'0 0.0
2018-Feb-17 03:21N 39°13' W 076°29'0 0.0
2018-Feb-17 02:57N 39°13' W 076°29'0 0.0
2018-Feb-17 02:30N 39°13' W 076°29'0 0.0
2018-Feb-17 01:51N 39°13' W 076°29'0 0.0
2018-Feb-17 01:30N 39°13' W 076°29'0 0.0
2018-Feb-16 23:33N 39°13' W 076°29'0 0.0
2018-Feb-16 23:30N 39°13' W 076°29'0 0.0
2018-Feb-16 23:00N 39°13' W 076°29'0 0.0
2018-Feb-16 22:30N 39°13' W 076°29'0 0.0
2018-Feb-16 22:00N 39°13' W 076°29'0 0.0
2018-Feb-16 21:30N 39°13' W 076°29'0 0.0
2018-Feb-16 20:59N 39°13' W 076°29'0 0.0
2018-Feb-16 20:29N 39°13' W 076°29'0 0.0
2018-Feb-16 19:59N 39°13' W 076°29'0 0.0
2018-Feb-16 19:29N 39°13' W 076°29'0 0.0
2018-Feb-16 18:59N 39°13' W 076°29'0 0.0
2018-Feb-16 18:29N 39°13' W 076°29'0 0.0
2018-Feb-16 17:59N 39°13' W 076°29'0 0.0
2018-Feb-16 17:29N 39°13' W 076°29'0 0.0
2018-Feb-16 16:59N 39°13' W 076°29'0 0.0
2018-Feb-16 16:29N 39°13' W 076°29'0 0.0
2018-Feb-16 15:59N 39°13' W 076°29'0 0.0
2018-Feb-16 15:29N 39°13' W 076°29'0 0.0
2018-Feb-16 14:59N 39°13' W 076°29'0 0.0
2018-Feb-16 14:29N 39°13' W 076°29'0 0.0
2018-Feb-16 13:59N 39°13' W 076°29'0 0.0
2018-Feb-16 13:29N 39°13' W 076°29'0 0.2
2018-Feb-16 12:59N 39°13' W 076°29'0 0.4
2018-Feb-16 12:29N 39°13' W 076°29'0 0.0
2018-Feb-16 11:59N 39°13' W 076°29'0 0.0
2018-Feb-16 11:29N 39°13' W 076°29'0 0.0
2018-Feb-16 10:59N 39°13' W 076°29'0 0.0
2018-Feb-16 10:29N 39°13' W 076°29'0 0.0
2018-Feb-16 09:59N 39°13' W 076°29'0 0.0
2018-Feb-16 09:29N 39°13' W 076°29'0 0.0
2018-Feb-16 08:59N 39°13' W 076°29'0 0.0
2018-Feb-16 08:30N 39°13' W 076°29'0 0.1
2018-Feb-16 08:00N 39°13' W 076°29'1 2.1
2018-Feb-16 07:30N 39°12' W 076°29'4 7.4
2018-Feb-16 07:00N 39°10' W 076°25'4 8.5
2018-Feb-16 06:30N 39°09' W 076°19'5 9.6
2018-Feb-16 05:59N 39°13' W 076°15'5 9.8
2018-Feb-16 05:30N 39°17' W 076°14'5 9.3
2018-Feb-16 05:00N 39°21' W 076°10'5 9.3
2018-Feb-16 04:30N 39°23' W 076°05'4 8.8
2018-Feb-16 04:00N 39°26' W 076°00'4 8.7
2018-Feb-16 03:30N 39°29' W 075°57'4 8.1
2018-Feb-16 03:00N 39°32' W 075°52'4 7.2
2018-Feb-16 02:30N 39°32' W 075°48'4 7.4
2018-Feb-16 02:00N 39°33' W 075°43'4 7.1
2018-Feb-16 01:30N 39°33' W 075°38'4 7.2
2018-Feb-16 01:00N 39°34' W 075°34'4 7.4
2018-Feb-16 00:30N 39°30' W 075°33'1 1.2
2018-Feb-16 00:00N 39°29' W 075°33'3 5.4
2018-Feb-15 23:30N 39°27' W 075°33'3 6.8
2018-Feb-15 23:00N 39°24' W 075°30'3 6.1
2018-Feb-15 22:31N 39°22' W 075°27'3 5.5
2018-Feb-15 22:01N 39°20' W 075°25'3 5.3
2018-Feb-15 21:30N 39°18' W 075°23'3 5.4
2018-Feb-15 21:00N 39°16' W 075°20'3 5.5
2018-Feb-15 20:30N 39°14' W 075°18'2 3.7
2018-Feb-15 20:00N 39°12' W 075°17'3 5.3
2018-Feb-15 19:30N 39°10' W 075°15'3 6.3
2018-Feb-15 19:00N 39°07' W 075°13'3 5.8
2018-Feb-15 18:30N 39°05' W 075°11'3 5.7
2018-Feb-15 17:58N 39°02' W 075°09'3 5.7
2018-Feb-15 17:30N 38°60' W 075°08'4 5.7
2018-Feb-15 16:51N 38°56' W 075°06'64 6.0
2018-Feb-15 06:11N 39°37' W 074°03'2 7.7
2018-Feb-15 05:52N 39°39' W 074°02'3 7.8
2018-Feb-15 05:28N 39°42' W 074°00'4 7.8
2018-Feb-15 04:56N 39°46' W 073°58'4 7.8
2018-Feb-15 04:26N 39°50' W 073°58'34 7.7
2018-Feb-15 00:00N 40°24' W 073°54'4 7.4
2018-Feb-14 23:30N 40°27' W 073°54'3 6.4
2018-Feb-14 23:00N 40°30' W 073°57'3 6.2
2018-Feb-14 22:30N 40°31' W 074°00'3 6.2
2018-Feb-14 22:00N 40°34' W 074°02'1 1.6
2018-Feb-14 21:30N 40°35' W 074°02'3 7.0
2018-Feb-14 21:00N 40°38' W 074°04'4 8.2
2018-Feb-14 20:30N 40°42' W 074°00'2 3.3
2018-Feb-14 19:59N 40°42' W 073°58'0 0.0
2018-Feb-14 19:29N 40°42' W 073°58'0 0.0
2018-Feb-14 18:58N 40°42' W 073°58'0 0.1
2018-Feb-14 18:28N 40°42' W 073°58'0 0.2
2018-Feb-14 18:00N 40°42' W 073°58'0 0.0
2018-Feb-14 17:30N 40°42' W 073°58'0 0.0
2018-Feb-14 17:00N 40°42' W 073°58'0 0.0
2018-Feb-14 16:30N 40°42' W 073°58'0 0.0
2018-Feb-14 16:00N 40°42' W 073°58'0 0.0
2018-Feb-14 15:24N 40°42' W 073°58'0 0.0
2018-Feb-14 15:00N 40°42' W 073°58'0 0.0
2018-Feb-14 14:30N 40°42' W 073°58'0 0.0
2018-Feb-14 14:00N 40°42' W 073°58'0 0.0
2018-Feb-14 13:30N 40°42' W 073°58'0 0.0
2018-Feb-14 13:00N 40°42' W 073°58'0 0.0
2018-Feb-14 12:30N 40°42' W 073°58'0 0.0
2018-Feb-14 12:00N 40°42' W 073°58'0 0.0
2018-Feb-14 11:30N 40°42' W 073°58'0 1.0
2018-Feb-14 11:00N 40°42' W 073°59'4 7.5
2018-Feb-14 10:30N 40°40' W 074°03'3 5.8
2018-Feb-14 10:00N 40°39' W 074°06'3 5.2
2018-Feb-14 09:30N 40°39' W 074°10'2 3.2
2018-Feb-14 08:58N 40°38' W 074°12'0 0.0
2018-Feb-14 08:28N 40°38' W 074°12'0 0.0
2018-Feb-14 07:58N 40°38' W 074°12'0 0.0
2018-Feb-14 07:28N 40°38' W 074°12'0 0.0
2018-Feb-14 06:58N 40°38' W 074°12'0 0.0
2018-Feb-14 06:25N 40°38' W 074°12'0 0.0
2018-Feb-14 05:58N 40°38' W 074°12'0 0.0
2018-Feb-14 05:25N 40°38' W 074°12'0 0.9
2018-Feb-14 05:00N 40°39' W 074°11'4 8.5
2018-Feb-14 04:30N 40°39' W 074°06'5 9.3
2018-Feb-14 04:01N 40°41' W 074°01'2 4.1
2018-Feb-14 03:30N 40°42' W 073°58'0 0.0
2018-Feb-14 03:00N 40°42' W 073°58'0 0.0
2018-Feb-14 02:30N 40°42' W 073°58'0 0.0
2018-Feb-14 02:00N 40°42' W 073°58'0 0.0
2018-Feb-14 01:27N 40°42' W 073°58'0 0.0
2018-Feb-14 01:00N 40°42' W 073°58'0 0.0
2018-Feb-14 00:30N 40°42' W 073°58'0 0.0
2018-Feb-14 00:00N 40°42' W 073°58'0 0.0
2018-Feb-13 23:30N 40°42' W 073°58'0 0.0
2018-Feb-13 23:00N 40°42' W 073°58'0 0.0
2018-Feb-13 22:30N 40°42' W 073°58'0 0.0
2018-Feb-13 22:00N 40°42' W 073°58'0 0.0
2018-Feb-13 21:30N 40°42' W 073°58'0 0.0
2018-Feb-13 21:00N 40°42' W 073°58'0 0.1
2018-Feb-13 20:30N 40°42' W 073°58'0 0.0
2018-Feb-13 20:00N 40°42' W 073°58'0 0.0
2018-Feb-13 19:30N 40°42' W 073°58'0 0.0
2018-Feb-13 18:59N 40°42' W 073°58'0 0.0
2018-Feb-13 18:29N 40°42' W 073°58'0 0.0
2018-Feb-13 17:59N 40°42' W 073°58'0 0.0
2018-Feb-13 17:29N 40°42' W 073°58'0 0.0
2018-Feb-13 16:59N 40°42' W 073°58'0 0.0
2018-Feb-13 16:29N 40°42' W 073°58'0 0.0
2018-Feb-13 15:59N 40°42' W 073°58'0 0.0
2018-Feb-13 15:29N 40°42' W 073°58'0 0.2
2018-Feb-13 15:00N 40°43' W 073°58'0 0.1
2018-Feb-13 14:29N 40°42' W 073°58'0 0.0
2018-Feb-13 13:59N 40°42' W 073°58'0 0.0
2018-Feb-13 13:29N 40°42' W 073°58'0 0.0
2018-Feb-13 12:59N 40°42' W 073°58'0 0.0
2018-Feb-13 12:29N 40°42' W 073°58'0 0.0
2018-Feb-13 11:59N 40°42' W 073°58'0 0.0
2018-Feb-13 11:29N 40°42' W 073°58'0 0.0
2018-Feb-13 10:59N 40°42' W 073°58'0 0.0
2018-Feb-13 10:29N 40°42' W 073°58'0 0.0
2018-Feb-13 09:59N 40°42' W 073°58'0 0.0
2018-Feb-13 09:28N 40°42' W 073°58'0 0.0
2018-Feb-13 08:58N 40°42' W 073°58'0 0.0
2018-Feb-13 08:28N 40°42' W 073°58'0 0.0
2018-Feb-13 08:00N 40°42' W 073°58'0 0.0
2018-Feb-13 07:30N 40°42' W 073°58'0 0.4
2018-Feb-13 07:00N 40°43' W 073°58'2 3.0
2018-Feb-13 06:30N 40°42' W 074°00'2 4.0
2018-Feb-13 06:01N 40°40' W 074°02'2 3.7
2018-Feb-13 05:31N 40°39' W 074°03'2 3.5
2018-Feb-13 05:00N 40°37' W 074°03'2 3.9
2018-Feb-13 04:30N 40°35' W 074°02'1 2.5
2018-Feb-13 04:00N 40°34' W 074°01'0 0.2
2018-Feb-13 03:30N 40°34' W 074°02'1 2.5
2018-Feb-13 03:00N 40°33' W 074°01'2 3.6
2018-Feb-13 02:29N 40°31' W 074°00'2 4.0
2018-Feb-13 02:00N 40°31' W 073°58'2 4.0
2018-Feb-13 01:29N 40°30' W 073°55'2 4.5
2018-Feb-13 01:00N 40°28' W 073°54'3 5.5
2018-Feb-13 00:25N 40°24' W 073°54'3 5.8
2018-Feb-12 23:57N 40°22' W 073°54'29 6.9
2018-Feb-12 19:46N 39°53' W 073°58'2 7.3
2018-Feb-12 19:28N 39°51' W 073°58'3 7.2
2018-Feb-12 19:00N 39°48' W 073°59'4 7.1
2018-Feb-12 18:30N 39°44' W 073°60'3 7.0
2018-Feb-12 18:00N 39°41' W 074°01'4 6.9
2018-Feb-12 17:29N 39°37' W 074°03'4 6.8
2018-Feb-12 16:54N 39°34' W 074°04'61 5.7
2018-Feb-12 06:11N 38°54' W 075°04'2 5.8
2018-Feb-12 05:52N 38°55' W 075°06'3 6.9
2018-Feb-12 05:28N 38°58' W 075°07'4 8.3
2018-Feb-12 05:00N 39°01' W 075°09'4 8.8
2018-Feb-12 04:30N 39°05' W 075°11'4 8.9
2018-Feb-12 04:00N 39°09' W 075°15'4 8.5
2018-Feb-12 03:31N 39°13' W 075°17'4 8.2
2018-Feb-12 03:00N 39°16' W 075°21'4 8.0
2018-Feb-12 02:30N 39°19' W 075°24'4 7.0
2018-Feb-12 02:01N 39°22' W 075°27'3 6.5
2018-Feb-12 01:30N 39°24' W 075°30'3 6.0
2018-Feb-12 01:00N 39°26' W 075°32'3 5.6
2018-Feb-12 00:30N 39°29' W 075°34'1 2.6
2018-Feb-12 00:01N 39°30' W 075°33'1 2.6
2018-Feb-11 23:31N 39°31' W 075°33'3 5.4
2018-Feb-11 23:01N 39°33' W 075°35'5 9.4
2018-Feb-11 22:31N 39°33' W 075°41'4 8.5
2018-Feb-11 22:01N 39°32' W 075°46'4 7.2
2018-Feb-11 21:30N 39°32' W 075°51'4 7.5
2018-Feb-11 21:00N 39°30' W 075°55'4 8.8
2018-Feb-11 20:31N 39°27' W 075°59'4 8.7
2018-Feb-11 20:00N 39°24' W 076°03'4 8.9
2018-Feb-11 19:30N 39°22' W 076°08'4 8.5
2018-Feb-11 19:00N 39°19' W 076°13'2 3.5
2018-Feb-11 18:30N 39°18' W 076°14'2 3.0
2018-Feb-11 17:57N 39°19' W 076°13'2 3.7
2018-Feb-11 17:30N 39°20' W 076°11'2 3.8
2018-Feb-11 17:00N 39°21' W 076°09'2 4.2
2018-Feb-11 16:31N 39°22' W 076°07'0 0.2
2018-Feb-11 16:00N 39°23' W 076°07'1 2.2
2018-Feb-11 15:31N 39°22' W 076°08'1 2.3
2018-Feb-11 14:59N 39°21' W 076°09'1 2.5
2018-Feb-11 14:29N 39°21' W 076°11'1 2.4
2018-Feb-11 14:00N 39°20' W 076°12'1 2.6
2018-Feb-11 13:30N 39°19' W 076°13'1 3.0
2018-Feb-11 13:01N 39°18' W 076°14'2 3.1
2018-Feb-11 12:30N 39°16' W 076°14'2 3.4
2018-Feb-11 11:57N 39°14' W 076°14'3 3.6
2018-Feb-11 11:13N 39°12' W 076°16'1 3.7
2018-Feb-11 10:58N 39°11' W 076°17'2 3.7
2018-Feb-11 10:30N 39°10' W 076°18'1 2.7
2018-Feb-11 10:00N 39°09' W 076°19'2 3.3
2018-Feb-11 09:30N 39°10' W 076°18'2 3.1
2018-Feb-11 09:00N 39°11' W 076°17'2 3.0
2018-Feb-11 08:29N 39°12' W 076°15'2 3.0
2018-Feb-11 07:58N 39°14' W 076°14'2 3.1
2018-Feb-11 07:26N 39°16' W 076°14'1 3.3
2018-Feb-11 07:01N 39°17' W 076°14'2 3.5
2018-Feb-11 06:31N 39°19' W 076°13'2 3.8
2018-Feb-11 06:00N 39°20' W 076°12'2 4.1
2018-Feb-11 05:31N 39°21' W 076°10'2 4.2
2018-Feb-11 05:00N 39°22' W 076°07'1 1.6
2018-Feb-11 04:31N 39°23' W 076°06'1 2.5
2018-Feb-11 04:01N 39°22' W 076°08'1 2.5
2018-Feb-11 03:31N 39°21' W 076°09'1 2.4
2018-Feb-11 03:01N 39°21' W 076°10'1 2.3
2018-Feb-11 02:30N 39°20' W 076°12'1 2.1
2018-Feb-11 02:00N 39°19' W 076°13'1 2.4
2018-Feb-11 01:30N 39°18' W 076°13'1 2.5
2018-Feb-11 01:00N 39°17' W 076°14'1 2.6
2018-Feb-11 00:30N 39°18' W 076°13'2 3.8
2018-Feb-11 00:00N 39°20' W 076°12'2 3.8
2018-Feb-10 23:31N 39°21' W 076°10'2 3.3
2018-Feb-10 23:00N 39°22' W 076°08'1 2.9
2018-Feb-10 22:30N 39°23' W 076°06'0 0.1
2018-Feb-10 21:59N 39°23' W 076°06'2 4.3
2018-Feb-10 21:30N 39°22' W 076°09'2 4.2
2018-Feb-10 21:00N 39°20' W 076°11'2 4.5
2018-Feb-10 20:30N 39°19' W 076°13'2 4.7
2018-Feb-10 19:59N 39°16' W 076°14'2 4.5
2018-Feb-10 19:28N 39°14' W 076°14'4 7.2
2018-Feb-10 18:53N 39°11' W 076°17'3 7.0
2018-Feb-10 18:30N 39°09' W 076°20'4 7.3
2018-Feb-10 18:00N 39°10' W 076°24'4 7.4
2018-Feb-10 17:27N 39°12' W 076°29'1 1.7
2018-Feb-10 17:00N 39°13' W 076°29'0 0.1
2018-Feb-10 16:30N 39°13' W 076°29'0 0.0
2018-Feb-10 16:00N 39°13' W 076°29'0 0.0
2018-Feb-10 15:30N 39°13' W 076°29'0 0.0
2018-Feb-10 15:01N 39°13' W 076°29'0 0.0
2018-Feb-10 14:30N 39°13' W 076°29'0 0.0
2018-Feb-10 14:00N 39°13' W 076°29'0 0.0
2018-Feb-10 13:30N 39°13' W 076°29'0 0.0
2018-Feb-10 12:58N 39°13' W 076°29'0 0.0
2018-Feb-10 12:28N 39°13' W 076°29'0 0.0
2018-Feb-10 11:58N 39°13' W 076°29'0 0.0
2018-Feb-10 11:28N 39°13' W 076°29'0 0.0
2018-Feb-10 10:58N 39°13' W 076°29'0 0.0
2018-Feb-10 10:28N 39°13' W 076°29'0 0.0
2018-Feb-10 09:58N 39°13' W 076°29'0 0.0
2018-Feb-10 09:28N 39°13' W 076°29'0 0.0
2018-Feb-10 08:58N 39°13' W 076°29'0 0.0
2018-Feb-10 08:28N 39°13' W 076°29'0 0.0
2018-Feb-10 07:58N 39°13' W 076°29'0 0.0
2018-Feb-10 07:28N 39°13' W 076°29'0 0.0
2018-Feb-10 06:58N 39°13' W 076°29'0 0.0
2018-Feb-10 06:28N 39°13' W 076°29'0 0.0
2018-Feb-10 05:58N 39°13' W 076°29'0 0.0
2018-Feb-10 05:28N 39°13' W 076°29'0 0.0
2018-Feb-10 04:58N 39°13' W 076°29'0 0.0
2018-Feb-10 04:28N 39°13' W 076°29'0 0.0
2018-Feb-10 03:58N 39°13' W 076°29'0 0.0
2018-Feb-10 03:28N 39°13' W 076°29'0 0.0
2018-Feb-10 02:58N 39°13' W 076°29'0 0.0
2018-Feb-10 02:28N 39°13' W 076°29'0 0.0
2018-Feb-10 01:58N 39°13' W 076°29'0 0.0
2018-Feb-10 01:28N 39°13' W 076°29'0 0.0
2018-Feb-10 00:58N 39°13' W 076°29'0 0.0
2018-Feb-10 00:28N 39°13' W 076°29'0 0.0
2018-Feb-09 23:58N 39°13' W 076°29'  
Track history (hours):
 
Tides and Currents Weather Stations Pressure Air Temp Water Temp Dewpoint Dewpoint Depression Visibility Wind Speed Wind Dir Waves Ship Positions

C. Angelo

Owner: G T 110 INC, NEW HAVEN, CT. More information available from US FCC via Universal Licensing System and Coast Guard Vessel Documentation Center.

Last reported at 2018-Feb-19 23:58 UTC. Time now 2018-Feb-20 00:02 UTC.
Position N 40°42' W 073°58'.

MMSI: 366988420.

Date/timePositionNaut miles runAvg speedWind from/ knotsBaromVisibWave heightAir tempDewpointWater temp
2018-Feb-19 23:58N 40°42' W 073°58'0 0.0
2018-Feb-19 23:29N 40°42' W 073°58'0 0.0
2018-Feb-19 22:30N 40°42' W 073°58'0 0.0
2018-Feb-19 22:00N 40°42' W 073°58'0 0.0
2018-Feb-19 21:28N 40°42' W 073°58'0 0.0
2018-Feb-19 21:00N 40°42' W 073°58'0 0.0
2018-Feb-19 20:30N 40°42' W 073°58'0 0.0
2018-Feb-19 20:00N 40°42' W 073°58'0 0.0
2018-Feb-19 19:30N 40°42' W 073°58'0 0.0
2018-Feb-19 19:00N 40°42' W 073°58'0 0.0
2018-Feb-19 18:30N 40°42' W 073°58'0 0.0
2018-Feb-19 17:59N 40°42' W 073°58'0 0.0
2018-Feb-19 17:30N 40°42' W 073°58'0 0.0
2018-Feb-19 16:59N 40°42' W 073°58'0 0.0
2018-Feb-19 16:29N 40°42' W 073°58'0 0.0
2018-Feb-19 16:00N 40°42' W 073°58'0 0.0
2018-Feb-19 15:30N 40°42' W 073°58'0 0.0
2018-Feb-19 15:00N 40°42' W 073°58'0 0.0
2018-Feb-19 14:30N 40°42' W 073°58'0 0.0
2018-Feb-19 14:00N 40°42' W 073°58'0 0.0
2018-Feb-19 13:30N 40°42' W 073°58'0 0.0
2018-Feb-19 12:58N 40°42' W 073°58'0 0.0
2018-Feb-19 12:29N 40°42' W 073°58'0 0.0
2018-Feb-19 12:00N 40°42' W 073°58'0 0.0
2018-Feb-19 11:30N 40°42' W 073°58'0 0.1
2018-Feb-19 11:00N 40°43' W 073°58'3 5.0
2018-Feb-19 10:30N 40°42' W 074°02'4 7.3
2018-Feb-19 10:00N 40°46' W 074°01'2 4.6
2018-Feb-19 09:30N 40°47' W 073°59'1 1.4
2018-Feb-19 08:59N 40°47' W 073°60'1 1.9
2018-Feb-19 08:30N 40°46' W 074°00'1 2.5
2018-Feb-19 08:00N 40°45' W 074°01'2 3.1
2018-Feb-19 07:30N 40°43' W 074°01'2 3.4
2018-Feb-19 07:00N 40°42' W 074°02'2 3.3
2018-Feb-19 06:30N 40°40' W 074°03'2 3.6
2018-Feb-19 06:00N 40°39' W 074°03'2 3.5
2018-Feb-19 05:30N 40°37' W 074°03'2 3.7
2018-Feb-19 05:00N 40°35' W 074°02'1 1.2
2018-Feb-19 04:30N 40°35' W 074°02'3 5.9
2018-Feb-19 04:00N 40°32' W 074°01'3 6.7
2018-Feb-19 03:29N 40°30' W 073°57'3 6.5
2018-Feb-19 03:00N 40°28' W 073°54'4 6.6
2018-Feb-19 02:28N 40°24' W 073°54'31 7.7
2018-Feb-18 22:25N 39°53' W 073°57'4 8.0
2018-Feb-18 21:58N 39°49' W 073°57'4 7.9
2018-Feb-18 21:30N 39°46' W 073°58'4 7.6
2018-Feb-18 20:59N 39°42' W 074°00'4 7.8
2018-Feb-18 20:30N 39°39' W 074°02'4 7.6
2018-Feb-18 19:57N 39°35' W 074°04'62 6.0
2018-Feb-18 09:46N 38°57' W 075°07'2 7.6
2018-Feb-18 09:28N 38°59' W 075°08'4 7.9
2018-Feb-18 09:00N 39°02' W 075°10'4 8.9
2018-Feb-18 08:30N 39°06' W 075°12'5 9.4
2018-Feb-18 08:00N 39°10' W 075°16'5 9.1
2018-Feb-18 07:30N 39°14' W 075°18'4 7.9
2018-Feb-18 07:00N 39°17' W 075°22'4 8.3
2018-Feb-18 06:30N 39°20' W 075°25'4 7.2
2018-Feb-18 06:00N 39°23' W 075°28'4 7.1
2018-Feb-18 05:30N 39°26' W 075°32'3 6.3
2018-Feb-18 05:00N 39°28' W 075°34'2 4.1
2018-Feb-18 04:30N 39°30' W 075°33'0 0.6
2018-Feb-18 04:00N 39°30' W 075°33'3 6.4
2018-Feb-18 03:31N 39°34' W 075°33'4 8.7
2018-Feb-18 03:00N 39°33' W 075°39'4 8.6
2018-Feb-18 02:30N 39°32' W 075°44'4 8.7
2018-Feb-18 02:00N 39°32' W 075°50'4 8.2
2018-Feb-18 01:31N 39°30' W 075°55'5 9.1
2018-Feb-18 01:00N 39°27' W 075°59'4 8.8
2018-Feb-18 00:30N 39°24' W 076°03'4 8.4
2018-Feb-18 00:00N 39°22' W 076°08'4 7.9
2018-Feb-17 23:27N 39°20' W 076°12'4 7.9
2018-Feb-17 23:00N 39°16' W 076°14'4 7.2
2018-Feb-17 22:30N 39°13' W 076°15'3 6.7
2018-Feb-17 21:59N 39°10' W 076°18'3 5.1
2018-Feb-17 21:29N 39°09' W 076°21'3 6.5
2018-Feb-17 21:00N 39°10' W 076°25'3 6.5
2018-Feb-17 20:30N 39°11' W 076°29'1 2.5
2018-Feb-17 20:00N 39°13' W 076°29'0 0.2
2018-Feb-17 19:27N 39°13' W 076°29'0 0.0
2018-Feb-17 18:56N 39°13' W 076°29'0 0.0
2018-Feb-17 18:28N 39°13' W 076°29'0 0.0
2018-Feb-17 17:59N 39°13' W 076°29'0 0.0
2018-Feb-17 17:26N 39°13' W 076°29'0 0.0
2018-Feb-17 17:00N 39°13' W 076°29'0 0.0
2018-Feb-17 16:28N 39°13' W 076°29'0 0.0
2018-Feb-17 16:00N 39°13' W 076°29'0 0.0
2018-Feb-17 15:30N 39°13' W 076°29'0 0.0
2018-Feb-17 14:59N 39°13' W 076°29'0 0.0
2018-Feb-17 14:29N 39°13' W 076°29'0 0.0
2018-Feb-17 14:00N 39°13' W 076°29'0 0.0
2018-Feb-17 13:27N 39°13' W 076°29'0 0.0
2018-Feb-17 13:00N 39°13' W 076°29'0 0.0
2018-Feb-17 12:30N 39°13' W 076°29'0 0.0
2018-Feb-17 12:00N 39°13' W 076°29'0 0.0
2018-Feb-17 11:30N 39°13' W 076°29'0 0.0
2018-Feb-17 11:00N 39°13' W 076°29'0 0.0
2018-Feb-17 10:15N 39°13' W 076°29'0 0.0
2018-Feb-17 10:00N 39°13' W 076°29'0 0.0
2018-Feb-17 09:30N 39°13' W 076°29'0 0.0
2018-Feb-17 09:00N 39°13' W 076°29'0 0.0
2018-Feb-17 08:30N 39°13' W 076°29'0 0.0
2018-Feb-17 08:00N 39°13' W 076°29'0 0.0
2018-Feb-17 07:30N 39°13' W 076°29'0 0.0
2018-Feb-17 07:00N 39°13' W 076°29'0 0.0
2018-Feb-17 06:21N 39°13' W 076°29'0 0.0
2018-Feb-17 05:57N 39°13' W 076°29'0 0.0
2018-Feb-17 05:24N 39°13' W 076°29'0 0.0
2018-Feb-17 05:00N 39°13' W 076°29'0 0.0
2018-Feb-17 04:21N 39°13' W 076°29'0 0.0
2018-Feb-17 03:51N 39°13' W 076°29'0 0.0
2018-Feb-17 03:21N 39°13' W 076°29'0 0.0
2018-Feb-17 02:57N 39°13' W 076°29'0 0.0
2018-Feb-17 02:30N 39°13' W 076°29'0 0.0
2018-Feb-17 01:51N 39°13' W 076°29'0 0.0
2018-Feb-17 01:30N 39°13' W 076°29'0 0.0
2018-Feb-16 23:33N 39°13' W 076°29'0 0.0
2018-Feb-16 23:30N 39°13' W 076°29'0 0.0
2018-Feb-16 23:00N 39°13' W 076°29'0 0.0
2018-Feb-16 22:30N 39°13' W 076°29'0 0.0
2018-Feb-16 22:00N 39°13' W 076°29'0 0.0
2018-Feb-16 21:30N 39°13' W 076°29'0 0.0
2018-Feb-16 20:59N 39°13' W 076°29'0 0.0
2018-Feb-16 20:29N 39°13' W 076°29'0 0.0
2018-Feb-16 19:59N 39°13' W 076°29'0 0.0
2018-Feb-16 19:29N 39°13' W 076°29'0 0.0
2018-Feb-16 18:59N 39°13' W 076°29'0 0.0
2018-Feb-16 18:29N 39°13' W 076°29'0 0.0
2018-Feb-16 17:59N 39°13' W 076°29'0 0.0
2018-Feb-16 17:29N 39°13' W 076°29'0 0.0
2018-Feb-16 16:59N 39°13' W 076°29'0 0.0
2018-Feb-16 16:29N 39°13' W 076°29'0 0.0
2018-Feb-16 15:59N 39°13' W 076°29'0 0.0
2018-Feb-16 15:29N 39°13' W 076°29'0 0.0
2018-Feb-16 14:59N 39°13' W 076°29'0 0.0
2018-Feb-16 14:29N 39°13' W 076°29'0 0.0
2018-Feb-16 13:59N 39°13' W 076°29'0 0.0
2018-Feb-16 13:29N 39°13' W 076°29'0 0.2
2018-Feb-16 12:59N 39°13' W 076°29'0 0.4
2018-Feb-16 12:29N 39°13' W 076°29'0 0.0
2018-Feb-16 11:59N 39°13' W 076°29'0 0.0
2018-Feb-16 11:29N 39°13' W 076°29'0 0.0
2018-Feb-16 10:59N 39°13' W 076°29'0 0.0
2018-Feb-16 10:29N 39°13' W 076°29'0 0.0
2018-Feb-16 09:59N 39°13' W 076°29'0 0.0
2018-Feb-16 09:29N 39°13' W 076°29'0 0.0
2018-Feb-16 08:59N 39°13' W 076°29'0 0.0
2018-Feb-16 08:30N 39°13' W 076°29'0 0.1
2018-Feb-16 08:00N 39°13' W 076°29'1 2.1
2018-Feb-16 07:30N 39°12' W 076°29'4 7.4
2018-Feb-16 07:00N 39°10' W 076°25'4 8.5
2018-Feb-16 06:30N 39°09' W 076°19'5 9.6
2018-Feb-16 05:59N 39°13' W 076°15'5 9.8
2018-Feb-16 05:30N 39°17' W 076°14'5 9.3
2018-Feb-16 05:00N 39°21' W 076°10'5 9.3
2018-Feb-16 04:30N 39°23' W 076°05'4 8.8
2018-Feb-16 04:00N 39°26' W 076°00'4 8.7
2018-Feb-16 03:30N 39°29' W 075°57'4 8.1
2018-Feb-16 03:00N 39°32' W 075°52'4 7.2
2018-Feb-16 02:30N 39°32' W 075°48'4 7.4
2018-Feb-16 02:00N 39°33' W 075°43'4 7.1
2018-Feb-16 01:30N 39°33' W 075°38'4 7.2
2018-Feb-16 01:00N 39°34' W 075°34'4 7.4
2018-Feb-16 00:30N 39°30' W 075°33'1 1.2
2018-Feb-16 00:00N 39°29' W 075°33'3 5.4
2018-Feb-15 23:30N 39°27' W 075°33'3 6.8
2018-Feb-15 23:00N 39°24' W 075°30'3 6.1
2018-Feb-15 22:31N 39°22' W 075°27'3 5.5
2018-Feb-15 22:01N 39°20' W 075°25'3 5.3
2018-Feb-15 21:30N 39°18' W 075°23'3 5.4
2018-Feb-15 21:00N 39°16' W 075°20'3 5.5
2018-Feb-15 20:30N 39°14' W 075°18'2 3.7
2018-Feb-15 20:00N 39°12' W 075°17'3 5.3
2018-Feb-15 19:30N 39°10' W 075°15'3 6.3
2018-Feb-15 19:00N 39°07' W 075°13'3 5.8
2018-Feb-15 18:30N 39°05' W 075°11'3 5.7
2018-Feb-15 17:58N 39°02' W 075°09'3 5.7
2018-Feb-15 17:30N 38°60' W 075°08'4 5.7
2018-Feb-15 16:51N 38°56' W 075°06'64 6.0
2018-Feb-15 06:11N 39°37' W 074°03'2 7.7
2018-Feb-15 05:52N 39°39' W 074°02'3 7.8
2018-Feb-15 05:28N 39°42' W 074°00'4 7.8
2018-Feb-15 04:56N 39°46' W 073°58'4 7.8
2018-Feb-15 04:26N 39°50' W 073°58'34 7.7
2018-Feb-15 00:00N 40°24' W 073°54'4 7.4
2018-Feb-14 23:30N 40°27' W 073°54'3 6.4
2018-Feb-14 23:00N 40°30' W 073°57'3 6.2
2018-Feb-14 22:30N 40°31' W 074°00'3 6.2
2018-Feb-14 22:00N 40°34' W 074°02'1 1.6
2018-Feb-14 21:30N 40°35' W 074°02'3 7.0
2018-Feb-14 21:00N 40°38' W 074°04'4 8.2
2018-Feb-14 20:30N 40°42' W 074°00'2 3.3
2018-Feb-14 19:59N 40°42' W 073°58'0 0.0
2018-Feb-14 19:29N 40°42' W 073°58'0 0.0
2018-Feb-14 18:58N 40°42' W 073°58'0 0.1
2018-Feb-14 18:28N 40°42' W 073°58'0 0.2
2018-Feb-14 18:00N 40°42' W 073°58'0 0.0
2018-Feb-14 17:30N 40°42' W 073°58'0 0.0
2018-Feb-14 17:00N 40°42' W 073°58'0 0.0
2018-Feb-14 16:30N 40°42' W 073°58'0 0.0
2018-Feb-14 16:00N 40°42' W 073°58'0 0.0
2018-Feb-14 15:24N 40°42' W 073°58'0 0.0
2018-Feb-14 15:00N 40°42' W 073°58'0 0.0
2018-Feb-14 14:30N 40°42' W 073°58'0 0.0
2018-Feb-14 14:00N 40°42' W 073°58'0 0.0
2018-Feb-14 13:30N 40°42' W 073°58'0 0.0
2018-Feb-14 13:00N 40°42' W 073°58'0 0.0
2018-Feb-14 12:30N 40°42' W 073°58'0 0.0
2018-Feb-14 12:00N 40°42' W 073°58'0 0.0
2018-Feb-14 11:30N 40°42' W 073°58'0 1.0
2018-Feb-14 11:00N 40°42' W 073°59'4 7.5
2018-Feb-14 10:30N 40°40' W 074°03'3 5.8
2018-Feb-14 10:00N 40°39' W 074°06'3 5.2
2018-Feb-14 09:30N 40°39' W 074°10'2 3.2
2018-Feb-14 08:58N 40°38' W 074°12'0 0.0
2018-Feb-14 08:28N 40°38' W 074°12'0 0.0
2018-Feb-14 07:58N 40°38' W 074°12'0 0.0
2018-Feb-14 07:28N 40°38' W 074°12'0 0.0
2018-Feb-14 06:58N 40°38' W 074°12'0 0.0
2018-Feb-14 06:25N 40°38' W 074°12'0 0.0
2018-Feb-14 05:58N 40°38' W 074°12'0 0.0
2018-Feb-14 05:25N 40°38' W 074°12'0 0.9
2018-Feb-14 05:00N 40°39' W 074°11'4 8.5
2018-Feb-14 04:30N 40°39' W 074°06'5 9.3
2018-Feb-14 04:01N 40°41' W 074°01'2 4.1
2018-Feb-14 03:30N 40°42' W 073°58'0 0.0
2018-Feb-14 03:00N 40°42' W 073°58'0 0.0
2018-Feb-14 02:30N 40°42' W 073°58'0 0.0
2018-Feb-14 02:00N 40°42' W 073°58'0 0.0
2018-Feb-14 01:27N 40°42' W 073°58'0 0.0
2018-Feb-14 01:00N 40°42' W 073°58'0 0.0
2018-Feb-14 00:30N 40°42' W 073°58'0 0.0
2018-Feb-14 00:00N 40°42' W 073°58'0 0.0
2018-Feb-13 23:30N 40°42' W 073°58'0 0.0
2018-Feb-13 23:00N 40°42' W 073°58'0 0.0
2018-Feb-13 22:30N 40°42' W 073°58'0 0.0
2018-Feb-13 22:00N 40°42' W 073°58'0 0.0
2018-Feb-13 21:30N 40°42' W 073°58'0 0.0
2018-Feb-13 21:00N 40°42' W 073°58'0 0.1
2018-Feb-13 20:30N 40°42' W 073°58'0 0.0
2018-Feb-13 20:00N 40°42' W 073°58'0 0.0
2018-Feb-13 19:30N 40°42' W 073°58'0 0.0
2018-Feb-13 18:59N 40°42' W 073°58'0 0.0
2018-Feb-13 18:29N 40°42' W 073°58'0 0.0
2018-Feb-13 17:59N 40°42' W 073°58'0 0.0
2018-Feb-13 17:29N 40°42' W 073°58'0 0.0
2018-Feb-13 16:59N 40°42' W 073°58'0 0.0
2018-Feb-13 16:29N 40°42' W 073°58'0 0.0
2018-Feb-13 15:59N 40°42' W 073°58'0 0.0
2018-Feb-13 15:29N 40°42' W 073°58'0 0.2
2018-Feb-13 15:00N 40°43' W 073°58'0 0.1
2018-Feb-13 14:29N 40°42' W 073°58'0 0.0
2018-Feb-13 13:59N 40°42' W 073°58'0 0.0
2018-Feb-13 13:29N 40°42' W 073°58'0 0.0
2018-Feb-13 12:59N 40°42' W 073°58'0 0.0
2018-Feb-13 12:29N 40°42' W 073°58'0 0.0
2018-Feb-13 11:59N 40°42' W 073°58'0 0.0
2018-Feb-13 11:29N 40°42' W 073°58'0 0.0
2018-Feb-13 10:59N 40°42' W 073°58'0 0.0
2018-Feb-13 10:29N 40°42' W 073°58'0 0.0
2018-Feb-13 09:59N 40°42' W 073°58'0 0.0
2018-Feb-13 09:28N 40°42' W 073°58'0 0.0
2018-Feb-13 08:58N 40°42' W 073°58'0 0.0
2018-Feb-13 08:28N 40°42' W 073°58'0 0.0
2018-Feb-13 08:00N 40°42' W 073°58'0 0.0
2018-Feb-13 07:30N 40°42' W 073°58'0 0.4
2018-Feb-13 07:00N 40°43' W 073°58'2 3.0
2018-Feb-13 06:30N 40°42' W 074°00'2 4.0
2018-Feb-13 06:01N 40°40' W 074°02'2 3.7
2018-Feb-13 05:31N 40°39' W 074°03'2 3.5
2018-Feb-13 05:00N 40°37' W 074°03'2 3.9
2018-Feb-13 04:30N 40°35' W 074°02'1 2.5
2018-Feb-13 04:00N 40°34' W 074°01'0 0.2
2018-Feb-13 03:30N 40°34' W 074°02'1 2.5
2018-Feb-13 03:00N 40°33' W 074°01'2 3.6
2018-Feb-13 02:29N 40°31' W 074°00'2 4.0
2018-Feb-13 02:00N 40°31' W 073°58'2 4.0
2018-Feb-13 01:29N 40°30' W 073°55'2 4.5
2018-Feb-13 01:00N 40°28' W 073°54'3 5.5
2018-Feb-13 00:25N 40°24' W 073°54'3 5.8
2018-Feb-12 23:57N 40°22' W 073°54'29 6.9
2018-Feb-12 19:46N 39°53' W 073°58'2 7.3
2018-Feb-12 19:28N 39°51' W 073°58'3 7.2
2018-Feb-12 19:00N 39°48' W 073°59'4 7.1
2018-Feb-12 18:30N 39°44' W 073°60'3 7.0
2018-Feb-12 18:00N 39°41' W 074°01'4 6.9
2018-Feb-12 17:29N 39°37' W 074°03'4 6.8
2018-Feb-12 16:54N 39°34' W 074°04'61 5.7
2018-Feb-12 06:11N 38°54' W 075°04'2 5.8
2018-Feb-12 05:52N 38°55' W 075°06'3 6.9
2018-Feb-12 05:28N 38°58' W 075°07'4 8.3
2018-Feb-12 05:00N 39°01' W 075°09'4 8.8
2018-Feb-12 04:30N 39°05' W 075°11'4 8.9
2018-Feb-12 04:00N 39°09' W 075°15'4 8.5
2018-Feb-12 03:31N 39°13' W 075°17'4 8.2
2018-Feb-12 03:00N 39°16' W 075°21'4 8.0
2018-Feb-12 02:30N 39°19' W 075°24'4 7.0
2018-Feb-12 02:01N 39°22' W 075°27'3 6.5
2018-Feb-12 01:30N 39°24' W 075°30'3 6.0
2018-Feb-12 01:00N 39°26' W 075°32'3 5.6
2018-Feb-12 00:30N 39°29' W 075°34'1 2.6
2018-Feb-12 00:01N 39°30' W 075°33'1 2.6
2018-Feb-11 23:31N 39°31' W 075°33'3 5.4
2018-Feb-11 23:01N 39°33' W 075°35'5 9.4
2018-Feb-11 22:31N 39°33' W 075°41'4 8.5
2018-Feb-11 22:01N 39°32' W 075°46'4 7.2
2018-Feb-11 21:30N 39°32' W 075°51'4 7.5
2018-Feb-11 21:00N 39°30' W 075°55'4 8.8
2018-Feb-11 20:31N 39°27' W 075°59'4 8.7
2018-Feb-11 20:00N 39°24' W 076°03'4 8.9
2018-Feb-11 19:30N 39°22' W 076°08'4 8.5
2018-Feb-11 19:00N 39°19' W 076°13'2 3.5
2018-Feb-11 18:30N 39°18' W 076°14'2 3.0
2018-Feb-11 17:57N 39°19' W 076°13'2 3.7
2018-Feb-11 17:30N 39°20' W 076°11'2 3.8
2018-Feb-11 17:00N 39°21' W 076°09'2 4.2
2018-Feb-11 16:31N 39°22' W 076°07'0 0.2
2018-Feb-11 16:00N 39°23' W 076°07'1 2.2
2018-Feb-11 15:31N 39°22' W 076°08'1 2.3
2018-Feb-11 14:59N 39°21' W 076°09'1 2.5
2018-Feb-11 14:29N 39°21' W 076°11'1 2.4
2018-Feb-11 14:00N 39°20' W 076°12'1 2.6
2018-Feb-11 13:30N 39°19' W 076°13'1 3.0
2018-Feb-11 13:01N 39°18' W 076°14'2 3.1
2018-Feb-11 12:30N 39°16' W 076°14'2 3.4
2018-Feb-11 11:57N 39°14' W 076°14'3 3.6
2018-Feb-11 11:13N 39°12' W 076°16'1 3.7
2018-Feb-11 10:58N 39°11' W 076°17'2 3.7
2018-Feb-11 10:30N 39°10' W 076°18'1 2.7
2018-Feb-11 10:00N 39°09' W 076°19'2 3.3
2018-Feb-11 09:30N 39°10' W 076°18'2 3.1
2018-Feb-11 09:00N 39°11' W 076°17'2 3.0
2018-Feb-11 08:29N 39°12' W 076°15'2 3.0
2018-Feb-11 07:58N 39°14' W 076°14'2 3.1
2018-Feb-11 07:26N 39°16' W 076°14'1 3.3
2018-Feb-11 07:01N 39°17' W 076°14'2 3.5
2018-Feb-11 06:31N 39°19' W 076°13'2 3.8
2018-Feb-11 06:00N 39°20' W 076°12'2 4.1
2018-Feb-11 05:31N 39°21' W 076°10'2 4.2
2018-Feb-11 05:00N 39°22' W 076°07'1 1.6
2018-Feb-11 04:31N 39°23' W 076°06'1 2.5
2018-Feb-11 04:01N 39°22' W 076°08'1 2.5
2018-Feb-11 03:31N 39°21' W 076°09'1 2.4
2018-Feb-11 03:01N 39°21' W 076°10'1 2.3
2018-Feb-11 02:30N 39°20' W 076°12'1 2.1
2018-Feb-11 02:00N 39°19' W 076°13'1 2.4
2018-Feb-11 01:30N 39°18' W 076°13'1 2.5
2018-Feb-11 01:00N 39°17' W 076°14'1 2.6
2018-Feb-11 00:30N 39°18' W 076°13'2 3.8
2018-Feb-11 00:00N 39°20' W 076°12'2 3.8
2018-Feb-10 23:31N 39°21' W 076°10'2 3.3
2018-Feb-10 23:00N 39°22' W 076°08'1 2.9
2018-Feb-10 22:30N 39°23' W 076°06'0 0.1
2018-Feb-10 21:59N 39°23' W 076°06'2 4.3
2018-Feb-10 21:30N 39°22' W 076°09'2 4.2
2018-Feb-10 21:00N 39°20' W 076°11'2 4.5
2018-Feb-10 20:30N 39°19' W 076°13'2 4.7
2018-Feb-10 19:59N 39°16' W 076°14'2 4.5
2018-Feb-10 19:28N 39°14' W 076°14'4 7.2
2018-Feb-10 18:53N 39°11' W 076°17'3 7.0
2018-Feb-10 18:30N 39°09' W 076°20'4 7.3
2018-Feb-10 18:00N 39°10' W 076°24'4 7.4
2018-Feb-10 17:27N 39°12' W 076°29'1 1.7
2018-Feb-10 17:00N 39°13' W 076°29'0 0.1
2018-Feb-10 16:30N 39°13' W 076°29'0 0.0
2018-Feb-10 16:00N 39°13' W 076°29'0 0.0
2018-Feb-10 15:30N 39°13' W 076°29'0 0.0
2018-Feb-10 15:01N 39°13' W 076°29'0 0.0
2018-Feb-10 14:30N 39°13' W 076°29'0 0.0
2018-Feb-10 14:00N 39°13' W 076°29'0 0.0
2018-Feb-10 13:30N 39°13' W 076°29'0 0.0
2018-Feb-10 12:58N 39°13' W 076°29'0 0.0
2018-Feb-10 12:28N 39°13' W 076°29'0 0.0
2018-Feb-10 11:58N 39°13' W 076°29'0 0.0
2018-Feb-10 11:28N 39°13' W 076°29'0 0.0
2018-Feb-10 10:58N 39°13' W 076°29'0 0.0
2018-Feb-10 10:28N 39°13' W 076°29'0 0.0
2018-Feb-10 09:58N 39°13' W 076°29'0 0.0
2018-Feb-10 09:28N 39°13' W 076°29'0 0.0
2018-Feb-10 08:58N 39°13' W 076°29'0 0.0
2018-Feb-10 08:28N 39°13' W 076°29'0 0.0
2018-Feb-10 07:58N 39°13' W 076°29'0 0.0
2018-Feb-10 07:28N 39°13' W 076°29'0 0.0
2018-Feb-10 06:58N 39°13' W 076°29'0 0.0
2018-Feb-10 06:28N 39°13' W 076°29'0 0.0
2018-Feb-10 05:58N 39°13' W 076°29'0 0.0
2018-Feb-10 05:28N 39°13' W 076°29'0 0.0
2018-Feb-10 04:58N 39°13' W 076°29'0 0.0
2018-Feb-10 04:28N 39°13' W 076°29'0 0.0
2018-Feb-10 03:58N 39°13' W 076°29'0 0.0
2018-Feb-10 03:28N 39°13' W 076°29'0 0.0
2018-Feb-10 02:58N 39°13' W 076°29'0 0.0
2018-Feb-10 02:28N 39°13' W 076°29'0 0.0
2018-Feb-10 01:58N 39°13' W 076°29'0 0.0
2018-Feb-10 01:28N 39°13' W 076°29'0 0.0
2018-Feb-10 00:58N 39°13' W 076°29'0 0.0
2018-Feb-10 00:28N 39°13' W 076°29'0 0.0
2018-Feb-09 23:58N 39°13' W 076°29'  

Dump ship's entire track history